Time;durP1;ratioP1;P1;durP2;ratioP2;P2;SDS_P1;SDS_P2;PMS_P1;PMS_P2;Temp;Humidity;BMP_temperature;BMP_pressure;BME280_temperature;BME280_humidity;BME280_pressure;Samples;Min_cycle;Max_cycle;Signal;HPM_P1;HPM_P2
2022/05/18 06:52:42;;;;;;;5.13;2.53;;;;;;;;;;12941549;23;20015;-90
2022/05/18 07:04:09;;;;;;;4.13;3.00;;;;;;;;;;12949328;23;20004;-86
2022/05/18 07:09:26;;;;;;;3.63;2.90;;;;;;;;;;12941695;23;20008;-85
2022/05/18 07:14:30;;;;;;;5.20;2.50;;;;;;;;;;13006655;22;20014;-84
2022/05/18 07:19:32;;;;;;;4.63;2.70;;;;;;;;;;13267368;22;20006;-83
2022/05/18 07:24:34;;;;;;;3.60;2.60;;;;;;;;;;13213001;22;20006;-84
2022/05/18 07:29:36;;;;;;;4.32;2.90;;;;;;;;;;13241281;22;20009;-85
2022/05/18 07:34:37;;;;;;;3.13;2.42;;;;;;;;;;13240733;22;20030;-85
2022/05/18 07:39:42;;;;;;;7.57;5.78;;;;;;;;;;13240909;22;20048;-85
2022/05/18 07:44:58;;;;;;;4.07;3.53;;;;;;;;;;13268858;22;20001;-84
2022/05/18 07:50:04;;;;;;;3.42;2.72;;;;;;;;;;13239562;22;20002;-83
2022/05/18 07:55:06;;;;;;;4.93;2.70;;;;;;;;;;13269048;22;20690;-84
2022/05/18 08:00:10;;;;;;;4.40;3.08;;;;;;;;;;13244418;22;20002;-83
2022/05/18 08:05:11;;;;;;;5.60;3.13;;;;;;;;;;13234213;22;20031;-85
2022/05/18 08:15:33;;;;;;;26.02;23.23;;;;;;;;;;13284838;22;20018;-83
2022/05/18 08:20:41;;;;;;;3.47;2.53;;;;;;;;;;13256641;22;20413;-83
2022/05/18 08:25:46;;;;;;;4.22;3.10;;;;;;;;;;13269286;22;20002;-83
2022/05/18 08:30:47;;;;;;;5.28;3.40;;;;;;;;;;13235884;22;20001;-86
2022/05/18 08:35:48;;;;;;;3.72;2.33;;;;;;;;;;13231471;22;20032;-86
2022/05/18 08:40:59;;;;;;;4.68;3.22;;;;;;;;;;13228521;22;20002;-86
2022/05/18 08:46:03;;;;;;;4.40;2.80;;;;;;;;;;13229247;22;20002;-86
2022/05/18 08:51:05;;;;;;;3.38;2.55;;;;;;;;;;13230958;22;20001;-87
2022/05/18 08:56:23;;;;;;;5.57;2.60;;;;;;;;;;13260064;22;20036;-86
2022/05/18 09:01:49;;;;;;;2.92;2.63;;;;;;;;;;13230849;22;20127;-86
2022/05/18 09:06:52;;;;;;;4.65;2.95;;;;;;;;;;13216938;22;20493;-85
2022/05/18 09:12:06;;;;;;;6.65;3.40;;;;;;;;;;13231031;22;20016;-87
2022/05/18 09:17:07;;;;;;;6.72;2.92;;;;;;;;;;13237959;22;20013;-87
2022/05/18 09:22:27;;;;;;;4.13;2.60;;;;;;;;;;13239060;22;20459;-85
2022/05/18 09:27:28;;;;;;;6.80;5.35;;;;;;;;;;13227190;22;20010;-86
2022/05/18 09:32:29;;;;;;;4.78;3.95;;;;;;;;;;13227041;22;19998;-86
2022/05/18 09:37:33;;;;;;;10.20;2.83;;;;;;;;;;13226405;22;20013;-85
2022/05/18 09:42:37;;;;;;;4.45;3.15;;;;;;;;;;13226135;22;20054;-86
2022/05/18 09:47:45;;;;;;;3.38;2.60;;;;;;;;;;13226208;22;20025;-86
2022/05/18 09:52:47;;;;;;;4.13;2.80;;;;;;;;;;13232730;22;20001;-86
2022/05/18 09:58:07;;;;;;;4.28;2.83;;;;;;;;;;13230991;22;19998;-86
2022/05/18 10:08:43;;;;;;;5.05;3.33;;;;;;;;;;13290261;22;20006;-86
2022/05/18 10:13:56;;;;;;;6.55;3.42;;;;;;;;;;13234117;22;20005;-87
2022/05/18 10:18:59;;;;;;;4.65;2.88;;;;;;;;;;13231010;22;20075;-86
2022/05/18 10:24:05;;;;;;;5.07;3.30;;;;;;;;;;13232483;22;20084;-86
2022/05/18 10:29:08;;;;;;;3.97;2.58;;;;;;;;;;13233636;22;20025;-87
2022/05/18 10:34:17;;;;;;;7.03;3.25;;;;;;;;;;13235763;22;19994;-87
2022/05/18 10:39:32;;;;;;;3.85;3.40;;;;;;;;;;13234098;22;20033;-87
2022/05/18 10:44:34;;;;;;;4.40;3.05;;;;;;;;;;13240508;22;20034;-87
2022/05/18 10:49:36;;;;;;;4.38;2.90;;;;;;;;;;13249043;22;20006;-87
2022/05/18 10:54:38;;;;;;;3.80;2.28;;;;;;;;;;13269212;22;20042;-85
2022/05/18 10:59:50;;;;;;;18.85;17.15;;;;;;;;;;13280297;22;19994;-87
2022/05/18 11:04:56;;;;;;;4.15;2.80;;;;;;;;;;13279839;22;19998;-87
2022/05/18 11:09:57;;;;;;;4.43;2.70;;;;;;;;;;13280094;22;20020;-87
2022/05/18 11:15:05;;;;;;;4.03;2.33;;;;;;;;;;13280325;22;20045;-87
2022/05/18 11:20:25;;;;;;;3.78;2.80;;;;;;;;;;13280443;22;20021;-86
2022/05/18 11:25:39;;;;;;;4.60;2.80;;;;;;;;;;13278675;22;20005;-83
2022/05/18 11:31:08;;;;;;;2.60;2.30;;;;;;;;;;13255813;22;20006;-86
2022/05/18 11:36:12;;;;;;;3.73;2.50;;;;;;;;;;13244437;22;20009;-84
2022/05/18 11:41:19;;;;;;;3.88;2.50;;;;;;;;;;13246073;22;20509;-85
2022/05/18 11:46:23;;;;;;;3.63;2.30;;;;;;;;;;13240181;22;20005;-83
2022/05/18 11:51:38;;;;;;;5.05;3.88;;;;;;;;;;13237383;22;20041;-83
2022/05/18 11:56:49;;;;;;;4.30;3.60;;;;;;;;;;13241859;22;19998;-84
2022/05/18 12:01:56;;;;;;;5.07;2.55;;;;;;;;;;13244578;22;20021;-85
2022/05/18 12:07:16;;;;;;;6.57;2.97;;;;;;;;;;13241283;22;20002;-83
2022/05/18 12:12:37;;;;;;;5.43;2.50;;;;;;;;;;13237678;22;20029;-83
2022/05/18 12:17:41;;;;;;;2.63;2.00;;;;;;;;;;13238452;22;20010;-83
2022/05/18 12:22:42;;;;;;;3.13;2.42;;;;;;;;;;13237223;22;20046;-82
2022/05/18 12:27:44;;;;;;;3.50;2.38;;;;;;;;;;13240693;22;20002;-82
2022/05/18 12:32:46;;;;;;;3.00;2.00;;;;;;;;;;13237800;22;20088;-83
2022/05/18 12:37:49;;;;;;;3.20;2.00;;;;;;;;;;13254880;22;20013;-86
2022/05/18 12:42:56;;;;;;;4.80;2.40;;;;;;;;;;13277684;22;20003;-88
2022/05/18 12:48:06;;;;;;;6.72;3.42;;;;;;;;;;13278086;22;20017;-87
2022/05/18 12:53:27;;;;;;;3.40;2.40;;;;;;;;;;13279221;22;19994;-87
2022/05/18 12:58:29;;;;;;;3.25;2.92;;;;;;;;;;13273895;22;19998;-83
2022/05/18 13:03:37;;;;;;;5.68;3.00;;;;;;;;;;13243542;22;20082;-83
2022/05/18 13:08:38;;;;;;;5.45;3.47;;;;;;;;;;13240424;22;20033;-84
2022/05/18 13:14:02;;;;;;;7.82;2.90;;;;;;;;;;13241201;22;19978;-83
2022/05/18 13:19:23;;;;;;;3.50;2.30;;;;;;;;;;13179864;22;20134;-83
2022/05/18 13:24:28;;;;;;;2.92;2.60;;;;;;;;;;13217831;22;20337;-83
2022/05/18 13:29:31;;;;;;;3.78;2.22;;;;;;;;;;13244045;22;20006;-82
2022/05/18 13:34:41;;;;;;;4.22;2.42;;;;;;;;;;13245659;22;20002;-83
2022/05/18 13:39:46;;;;;;;5.20;2.15;;;;;;;;;;13234257;22;20002;-83
2022/05/18 13:44:51;;;;;;;4.38;2.53;;;;;;;;;;13236624;22;20037;-86
2022/05/18 13:49:52;;;;;;;4.07;3.10;;;;;;;;;;13232211;22;20069;-86
2022/05/18 13:54:58;;;;;;;3.22;2.70;;;;;;;;;;13229885;22;20036;-86
2022/05/18 13:59:59;;;;;;;5.82;2.40;;;;;;;;;;13233046;22;19998;-86
2022/05/18 14:05:04;;;;;;;4.45;4.05;;;;;;;;;;13260993;22;20002;-85
2022/05/18 14:10:06;;;;;;;3.95;2.50;;;;;;;;;;13230880;22;20089;-87
2022/05/18 14:15:08;;;;;;;4.70;1.98;;;;;;;;;;13228887;22;20085;-86
2022/05/18 14:20:18;;;;;;;4.38;2.70;;;;;;;;;;13232406;22;20069;-87
2022/05/18 14:25:22;;;;;;;3.53;2.70;;;;;;;;;;13232852;22;20002;-87
2022/05/18 14:30:32;;;;;;;3.20;2.08;;;;;;;;;;13234922;22;20010;-86
2022/05/18 14:35:44;;;;;;;6.55;2.72;;;;;;;;;;13231470;22;20002;-85
2022/05/18 14:40:47;;;;;;;4.32;2.90;;;;;;;;;;13272621;22;20002;-84
2022/05/18 14:45:54;;;;;;;4.45;3.20;;;;;;;;;;13245162;22;19998;-84
2022/05/18 14:51:07;;;;;;;5.88;2.65;;;;;;;;;;13250604;22;20029;-84
2022/05/18 14:56:10;;;;;;;3.58;2.58;;;;;;;;;;13249943;22;20002;-83
2022/05/18 15:01:19;;;;;;;4.55;2.60;;;;;;;;;;13251432;22;20006;-84
2022/05/18 15:06:21;;;;;;;;;;;;;;;;;;13254137;22;20009;-85
2022/05/18 15:11:40;;;;;;;4.40;2.70;;;;;;;;;;13249225;22;19951;-84
2022/05/18 15:16:44;;;;;;;3.70;2.80;;;;;;;;;;13238717;22;20074;-84
2022/05/18 15:21:45;;;;;;;6.20;2.42;;;;;;;;;;13242634;22;20017;-85
2022/05/18 15:26:50;;;;;;;6.20;2.80;;;;;;;;;;13236496;22;20006;-84
2022/05/18 15:31:53;;;;;;;4.00;2.83;;;;;;;;;;13241113;22;20009;-84
2022/05/18 15:36:54;;;;;;;3.25;2.70;;;;;;;;;;13274291;22;20019;-85
2022/05/18 15:41:56;;;;;;;5.15;3.33;;;;;;;;;;13251693;22;20013;-85
2022/05/18 15:46:59;;;;;;;5.55;3.92;;;;;;;;;;13247029;22;19986;-85
2022/05/18 15:52:01;;;;;;;4.47;2.40;;;;;;;;;;13247683;22;20002;-85
2022/05/18 15:57:02;;;;;;;2.50;2.10;;;;;;;;;;13283743;22;20017;-85
2022/05/18 16:02:04;;;;;;;5.07;3.08;;;;;;;;;;13246900;22;20002;-85
2022/05/18 16:07:05;;;;;;;5.07;3.72;;;;;;;;;;13252872;22;20361;-85
2022/05/18 16:12:11;;;;;;;2.97;2.08;;;;;;;;;;13257391;22;20401;-84
2022/05/18 16:17:13;;;;;;;3.40;2.45;;;;;;;;;;13256448;22;20009;-86
2022/05/18 16:22:22;;;;;;;6.05;2.72;;;;;;;;;;13241397;22;20066;-86
2022/05/18 19:08:01;;;;;;;7.20;4.57;;;;;;;;;;13149079;22;19998;-89
